sensor_id;sensor_type;location;lat;lon;timestamp;temperature;humidity
480;DHT22;226;48.606;9.096;2023-04-24T00:01:51;9.40;99.90
480;DHT22;226;48.606;9.096;2023-04-24T00:04:21;9.40;99.90
480;DHT22;226;48.606;9.096;2023-04-24T00:09:24;9.50;99.90
480;DHT22;226;48.606;9.096;2023-04-24T00:11:52;9.60;99.90
480;DHT22;226;48.606;9.096;2023-04-24T00:16:49;9.60;99.90
480;DHT22;226;48.606;9.096;2023-04-24T00:19:17;9.60;99.90
480;DHT22;226;48.606;9.096;2023-04-24T00:21:49;9.90;99.60
480;DHT22;226;48.606;9.096;2023-04-24T00:24:17;9.90;98.90
480;DHT22;226;48.606;9.096;2023-04-24T00:26:46;10.00;96.50
480;DHT22;226;48.606;9.096;2023-04-24T00:29:14;10.00;95.70
480;DHT22;226;48.606;9.096;2023-04-24T00:31:42;10.20;93.70
480;DHT22;226;48.606;9.096;2023-04-24T00:34:10;10.20;93.50
480;DHT22;226;48.606;9.096;2023-04-24T00:36:38;10.30;93.10
480;DHT22;226;48.606;9.096;2023-04-24T00:41:37;10.50;95.10
480;DHT22;226;48.606;9.096;2023-04-24T00:44:05;10.70;91.60
480;DHT22;226;48.606;9.096;2023-04-24T00:46:34;10.70;91.10
480;DHT22;226;48.606;9.096;2023-04-24T00:49:02;10.70;90.90
480;DHT22;226;48.606;9.096;2023-04-24T00:51:30;10.70;92.60
480;DHT22;226;48.606;9.096;2023-04-24T01:34:00;10.30;94.50
480;DHT22;226;48.606;9.096;2023-04-24T02:38:52;9.90;99.90
480;DHT22;226;48.606;9.096;2023-04-24T02:56:15;9.90;99.90
480;DHT22;226;48.606;9.096;2023-04-24T03:06:11;10.00;99.90
480;DHT22;226;48.606;9.096;2023-04-24T03:16:05;9.90;99.90
480;DHT22;226;48.606;9.096;2023-04-24T03:18:33;9.80;99.90
480;DHT22;226;48.606;9.096;2023-04-24T03:23:31;10.00;99.90
480;DHT22;226;48.606;9.096;2023-04-24T03:25:59;10.00;99.90
480;DHT22;226;48.606;9.096;2023-04-24T03:28:28;10.00;99.90
480;DHT22;226;48.606;9.096;2023-04-24T03:30:57;10.00;99.90
480;DHT22;226;48.606;9.096;2023-04-24T03:33:25;10.10;99.90
480;DHT22;226;48.606;9.096;2023-04-24T03:38:22;10.10;99.90
480;DHT22;226;48.606;9.096;2023-04-24T03:40:50;9.90;99.90
480;DHT22;226;48.606;9.096;2023-04-24T03:43:18;10.00;99.90
480;DHT22;226;48.606;9.096;2023-04-24T03:45:47;10.00;99.90
480;DHT22;226;48.606;9.096;2023-04-24T03:48:15;10.00;99.90
480;DHT22;226;48.606;9.096;2023-04-24T03:50:43;9.90;99.90
480;DHT22;226;48.606;9.096;2023-04-24T03:53:11;10.00;99.90
480;DHT22;226;48.606;9.096;2023-04-24T03:55:40;9.90;99.90
480;DHT22;226;48.606;9.096;2023-04-24T03:58:09;9.80;99.90
480;DHT22;226;48.606;9.096;2023-04-24T04:00:37;9.80;99.90
480;DHT22;226;48.606;9.096;2023-04-24T04:03:07;9.70;99.90
480;DHT22;226;48.606;9.096;2023-04-24T04:05:35;9.70;99.90
480;DHT22;226;48.606;9.096;2023-04-24T04:08:03;9.60;99.90
480;DHT22;226;48.606;9.096;2023-04-24T04:13:01;9.80;99.90
480;DHT22;226;48.606;9.096;2023-04-24T04:15:29;9.70;99.90
480;DHT22;226;48.606;9.096;2023-04-24T04:17:57;9.70;99.90
480;DHT22;226;48.606;9.096;2023-04-24T04:20:26;9.70;99.90
480;DHT22;226;48.606;9.096;2023-04-24T04:22:54;9.90;99.90
480;DHT22;226;48.606;9.096;2023-04-24T04:25:22;9.90;99.90
480;DHT22;226;48.606;9.096;2023-04-24T04:27:50;10.00;99.90
480;DHT22;226;48.606;9.096;2023-04-24T04:30:20;10.10;99.90
480;DHT22;226;48.606;9.096;2023-04-24T06:40:00;10.70;97.40
480;DHT22;226;48.606;9.096;2023-04-24T07:19:48;10.60;90.90
480;DHT22;226;48.606;9.096;2023-04-24T07:24:46;10.40;96.60
480;DHT22;226;48.606;9.096;2023-04-24T07:27:14;10.30;94.40
480;DHT22;226;48.606;9.096;2023-04-24T07:29:43;10.30;93.20
480;DHT22;226;48.606;9.096;2023-04-24T07:32:12;10.40;93.20
480;DHT22;226;48.606;9.096;2023-04-24T07:34:40;10.60;93.20
480;DHT22;226;48.606;9.096;2023-04-24T07:37:08;10.70;91.10
480;DHT22;226;48.606;9.096;2023-04-24T07:39:36;10.70;91.50
480;DHT22;226;48.606;9.096;2023-04-24T07:42:04;10.90;86.80
480;DHT22;226;48.606;9.096;2023-04-24T07:44:32;11.10;84.20
480;DHT22;226;48.606;9.096;2023-04-24T07:47:02;11.20;75.60
480;DHT22;226;48.606;9.096;2023-04-24T07:49:30;11.10;76.60
480;DHT22;226;48.606;9.096;2023-04-24T07:52:00;11.00;74.10
480;DHT22;226;48.606;9.096;2023-04-24T07:54:29;11.10;75.90
480;DHT22;226;48.606;9.096;2023-04-24T07:59:27;11.40;72.20
480;DHT22;226;48.606;9.096;2023-04-24T08:01:55;11.10;72.40
480;DHT22;226;48.606;9.096;2023-04-24T08:04:24;11.20;71.70
480;DHT22;226;48.606;9.096;2023-04-24T08:06:53;11.30;71.70
480;DHT22;226;48.606;9.096;2023-04-24T08:09:21;11.60;71.90
480;DHT22;226;48.606;9.096;2023-04-24T08:11:50;11.10;69.00
480;DHT22;226;48.606;9.096;2023-04-24T08:14:18;11.10;70.00
480;DHT22;226;48.606;9.096;2023-04-24T08:16:46;11.00;68.40
480;DHT22;226;48.606;9.096;2023-04-24T08:19:14;11.10;69.20
480;DHT22;226;48.606;9.096;2023-04-24T08:21:44;11.20;66.60
480;DHT22;226;48.606;9.096;2023-04-24T08:24:13;10.90;63.70
480;DHT22;226;48.606;9.096;2023-04-24T08:26:42;10.90;62.80
480;DHT22;226;48.606;9.096;2023-04-24T08:29:10;10.70;62.70
480;DHT22;226;48.606;9.096;2023-04-24T08:31:38;10.80;62.80
480;DHT22;226;48.606;9.096;2023-04-24T08:34:06;11.00;62.50
480;DHT22;226;48.606;9.096;2023-04-24T08:36:34;10.80;59.30
480;DHT22;226;48.606;9.096;2023-04-24T08:39:14;11.10;60.50
480;DHT22;226;48.606;9.096;2023-04-24T08:41:43;11.10;58.80
480;DHT22;226;48.606;9.096;2023-04-24T08:44:12;11.10;60.20
480;DHT22;226;48.606;9.096;2023-04-24T08:46:43;11.50;59.10
480;DHT22;226;48.606;9.096;2023-04-24T08:49:13;11.20;57.40
480;DHT22;226;48.606;9.096;2023-04-24T08:51:43;11.70;57.70
480;DHT22;226;48.606;9.096;2023-04-24T08:54:11;11.80;57.60
480;DHT22;226;48.606;9.096;2023-04-24T08:56:43;11.80;54.70
480;DHT22;226;48.606;9.096;2023-04-24T08:59:12;11.40;54.40
480;DHT22;226;48.606;9.096;2023-04-24T09:01:41;11.60;54.80
480;DHT22;226;48.606;9.096;2023-04-24T09:04:09;10.60;54.30
480;DHT22;226;48.606;9.096;2023-04-24T09:06:41;11.00;54.30
480;DHT22;226;48.606;9.096;2023-04-24T09:09:10;10.80;56.40
480;DHT22;226;48.606;9.096;2023-04-24T09:11:39;10.70;54.80
480;DHT22;226;48.606;9.096;2023-04-24T09:14:10;10.70;55.20
480;DHT22;226;48.606;9.096;2023-04-24T09:16:38;10.60;54.30
480;DHT22;226;48.606;9.096;2023-04-24T09:19:06;10.40;55.50
480;DHT22;226;48.606;9.096;2023-04-24T09:21:35;10.20;56.50
480;DHT22;226;48.606;9.096;2023-04-24T09:24:07;10.90;54.10
480;DHT22;226;48.606;9.096;2023-04-24T09:26:36;11.20;55.50
480;DHT22;226;48.606;9.096;2023-04-24T09:29:04;11.30;53.90
480;DHT22;226;48.606;9.096;2023-04-24T09:31:34;10.50;50.30
480;DHT22;226;48.606;9.096;2023-04-24T09:34:03;11.30;52.30
480;DHT22;226;48.606;9.096;2023-04-24T09:36:35;11.40;50.20
480;DHT22;226;48.606;9.096;2023-04-24T09:39:06;11.40;50.50
480;DHT22;226;48.606;9.096;2023-04-24T09:41:44;11.10;48.10
480;DHT22;226;48.606;9.096;2023-04-24T09:44:13;10.90;47.50
480;DHT22;226;48.606;9.096;2023-04-24T09:46:44;11.10;46.20
480;DHT22;226;48.606;9.096;2023-04-24T09:49:14;11.10;46.80
480;DHT22;226;48.606;9.096;2023-04-24T09:51:43;11.00;46.40
480;DHT22;226;48.606;9.096;2023-04-24T09:54:14;11.20;46.90
480;DHT22;226;48.606;9.096;2023-04-24T09:56:44;11.40;48.50
480;DHT22;226;48.606;9.096;2023-04-24T09:59:13;11.80;47.70
480;DHT22;226;48.606;9.096;2023-04-24T10:01:43;12.70;47.10
480;DHT22;226;48.606;9.096;2023-04-24T10:04:19;12.30;45.80
480;DHT22;226;48.606;9.096;2023-04-24T10:06:48;12.40;45.50
480;DHT22;226;48.606;9.096;2023-04-24T10:09:18;12.80;47.00
480;DHT22;226;48.606;9.096;2023-04-24T10:11:47;12.60;43.40
480;DHT22;226;48.606;9.096;2023-04-24T10:14:17;12.40;43.00
480;DHT22;226;48.606;9.096;2023-04-24T10:16:49;12.40;43.60
480;DHT22;226;48.606;9.096;2023-04-24T10:19:17;12.30;43.90
480;DHT22;226;48.606;9.096;2023-04-24T10:21:47;12.20;43.80
480;DHT22;226;48.606;9.096;2023-04-24T10:24:16;12.20;43.80
480;DHT22;226;48.606;9.096;2023-04-24T10:26:45;12.00;45.00
480;DHT22;226;48.606;9.096;2023-04-24T10:29:17;12.00;45.30
480;DHT22;226;48.606;9.096;2023-04-24T10:31:45;11.80;46.70
480;DHT22;226;48.606;9.096;2023-04-24T10:34:17;11.90;45.00
480;DHT22;226;48.606;9.096;2023-04-24T10:36:50;11.70;46.50
480;DHT22;226;48.606;9.096;2023-04-24T10:39:21;11.60;46.60
480;DHT22;226;48.606;9.096;2023-04-24T10:41:54;11.80;47.40
480;DHT22;226;48.606;9.096;2023-04-24T10:44:24;11.90;46.70
480;DHT22;226;48.606;9.096;2023-04-24T10:46:55;11.80;47.10
480;DHT22;226;48.606;9.096;2023-04-24T10:49:30;11.20;47.60
480;DHT22;226;48.606;9.096;2023-04-24T10:52:01;12.10;48.20
480;DHT22;226;48.606;9.096;2023-04-24T10:54:36;11.70;49.20
480;DHT22;226;48.606;9.096;2023-04-24T11:00:18;11.70;47.50
480;DHT22;226;48.606;9.096;2023-04-24T11:02:47;11.40;49.70
480;DHT22;226;48.606;9.096;2023-04-24T11:05:20;11.40;49.50
480;DHT22;226;48.606;9.096;2023-04-24T11:08:10;11.60;52.00
480;DHT22;226;48.606;9.096;2023-04-24T11:10:45;11.50;48.90
480;DHT22;226;48.606;9.096;2023-04-24T11:13:15;12.20;50.90
480;DHT22;226;48.606;9.096;2023-04-24T11:15:44;11.70;50.20
480;DHT22;226;48.606;9.096;2023-04-24T11:18:15;11.90;50.20
480;DHT22;226;48.606;9.096;2023-04-24T11:20:45;11.90;50.00
480;DHT22;226;48.606;9.096;2023-04-24T11:23:14;12.00;48.40
480;DHT22;226;48.606;9.096;2023-04-24T11:25:42;11.70;49.70
480;DHT22;226;48.606;9.096;2023-04-24T11:28:14;11.60;49.10
480;DHT22;226;48.606;9.096;2023-04-24T11:30:44;11.90;50.10
480;DHT22;226;48.606;9.096;2023-04-24T11:33:12;12.00;50.30
480;DHT22;226;48.606;9.096;2023-04-24T11:35:51;11.50;48.80
480;DHT22;226;48.606;9.096;2023-04-24T11:38:19;10.90;48.80
480;DHT22;226;48.606;9.096;2023-04-24T11:40:51;11.30;49.30
480;DHT22;226;48.606;9.096;2023-04-24T11:43:20;11.20;50.80
480;DHT22;226;48.606;9.096;2023-04-24T11:45:48;11.20;52.00
480;DHT22;226;48.606;9.096;2023-04-24T11:48:19;11.20;51.00
480;DHT22;226;48.606;9.096;2023-04-24T11:50:51;11.50;51.50
480;DHT22;226;48.606;9.096;2023-04-24T11:53:19;11.90;48.30
480;DHT22;226;48.606;9.096;2023-04-24T11:55:48;11.60;48.30
480;DHT22;226;48.606;9.096;2023-04-24T11:58:20;12.10;49.20
480;DHT22;226;48.606;9.096;2023-04-24T12:00:56;11.50;49.50
480;DHT22;226;48.606;9.096;2023-04-24T12:03:24;11.50;49.50
480;DHT22;226;48.606;9.096;2023-04-24T12:06:04;11.90;50.50
480;DHT22;226;48.606;9.096;2023-04-24T12:08:33;11.80;50.40
480;DHT22;226;48.606;9.096;2023-04-24T12:11:05;11.20;49.30
480;DHT22;226;48.606;9.096;2023-04-24T12:13:34;11.20;49.80
480;DHT22;226;48.606;9.096;2023-04-24T12:16:04;11.20;50.00
480;DHT22;226;48.606;9.096;2023-04-24T12:18:32;11.30;49.80
480;DHT22;226;48.606;9.096;2023-04-24T12:21:25;11.50;49.70
480;DHT22;226;48.606;9.096;2023-04-24T12:23:56;11.70;51.00
480;DHT22;226;48.606;9.096;2023-04-24T12:28:53;11.00;46.70
480;DHT22;226;48.606;9.096;2023-04-24T12:31:21;11.10;51.70
480;DHT22;226;48.606;9.096;2023-04-24T12:33:50;11.30;51.00
480;DHT22;226;48.606;9.096;2023-04-24T12:36:21;11.10;53.40
480;DHT22;226;48.606;9.096;2023-04-24T12:38:52;11.20;53.40
480;DHT22;226;48.606;9.096;2023-04-24T12:41:20;11.50;54.00
480;DHT22;226;48.606;9.096;2023-04-24T12:43:52;11.70;52.50
480;DHT22;226;48.606;9.096;2023-04-24T12:48:50;11.40;51.10
480;DHT22;226;48.606;9.096;2023-04-24T12:51:18;11.10;56.40
480;DHT22;226;48.606;9.096;2023-04-24T12:53:46;10.60;59.40
480;DHT22;226;48.606;9.096;2023-04-24T12:56:16;10.40;68.30
480;DHT22;226;48.606;9.096;2023-04-24T12:58:44;10.60;65.00
480;DHT22;226;48.606;9.096;2023-04-24T13:01:12;10.90;67.80
480;DHT22;226;48.606;9.096;2023-04-24T13:03:41;11.50;71.60
480;DHT22;226;48.606;9.096;2023-04-24T13:06:10;11.70;62.30
480;DHT22;226;48.606;9.096;2023-04-24T13:08:38;11.90;56.40
480;DHT22;226;48.606;9.096;2023-04-24T13:11:06;11.70;57.40
480;DHT22;226;48.606;9.096;2023-04-24T13:13:35;11.80;55.80
480;DHT22;226;48.606;9.096;2023-04-24T13:16:04;11.80;56.50
480;DHT22;226;48.606;9.096;2023-04-24T13:18:32;11.90;55.60
480;DHT22;226;48.606;9.096;2023-04-24T13:21:01;11.90;54.50
480;DHT22;226;48.606;9.096;2023-04-24T13:23:29;11.80;55.70
480;DHT22;226;48.606;9.096;2023-04-24T13:25:57;11.80;54.70
480;DHT22;226;48.606;9.096;2023-04-24T13:28:25;11.50;54.60
480;DHT22;226;48.606;9.096;2023-04-24T13:30:54;11.50;54.10
480;DHT22;226;48.606;9.096;2023-04-24T13:33:22;11.60;55.20
480;DHT22;226;48.606;9.096;2023-04-24T13:35:51;11.80;53.80
480;DHT22;226;48.606;9.096;2023-04-24T13:38:19;11.40;53.20
480;DHT22;226;48.606;9.096;2023-04-24T13:40:48;11.50;54.00
480;DHT22;226;48.606;9.096;2023-04-24T13:43:16;11.00;54.00
480;DHT22;226;48.606;9.096;2023-04-24T13:45:44;11.40;55.00
480;DHT22;226;48.606;9.096;2023-04-24T13:48:14;11.60;54.90
480;DHT22;226;48.606;9.096;2023-04-24T13:50:43;11.60;52.60
480;DHT22;226;48.606;9.096;2023-04-24T13:53:11;11.30;52.40
480;DHT22;226;48.606;9.096;2023-04-24T13:55:39;11.30;52.70
480;DHT22;226;48.606;9.096;2023-04-24T13:58:07;11.20;53.00
480;DHT22;226;48.606;9.096;2023-04-24T14:00:35;11.20;54.30
480;DHT22;226;48.606;9.096;2023-04-24T14:03:03;11.30;52.90
480;DHT22;226;48.606;9.096;2023-04-24T14:05:33;11.10;53.80
480;DHT22;226;48.606;9.096;2023-04-24T14:08:04;11.10;54.50
480;DHT22;226;48.606;9.096;2023-04-24T14:10:33;11.20;53.80
480;DHT22;226;48.606;9.096;2023-04-24T14:13:01;11.40;52.30
480;DHT22;226;48.606;9.096;2023-04-24T14:15:29;11.20;52.10
480;DHT22;226;48.606;9.096;2023-04-24T14:17:57;11.10;51.50
480;DHT22;226;48.606;9.096;2023-04-24T14:20:25;11.00;51.40
480;DHT22;226;48.606;9.096;2023-04-24T14:22:54;11.10;50.90
480;DHT22;226;48.606;9.096;2023-04-24T14:25:25;11.10;51.00
480;DHT22;226;48.606;9.096;2023-04-24T14:27:53;11.20;49.70
480;DHT22;226;48.606;9.096;2023-04-24T14:30:22;11.40;50.30
480;DHT22;226;48.606;9.096;2023-04-24T14:32:50;11.50;50.70
480;DHT22;226;48.606;9.096;2023-04-24T14:35:18;11.70;49.80
480;DHT22;226;48.606;9.096;2023-04-24T14:37:46;11.90;48.90
480;DHT22;226;48.606;9.096;2023-04-24T14:40:16;11.80;48.90
480;DHT22;226;48.606;9.096;2023-04-24T14:43:04;12.00;49.60
480;DHT22;226;48.606;9.096;2023-04-24T14:45:33;11.30;47.90
480;DHT22;226;48.606;9.096;2023-04-24T14:48:01;11.60;48.80
480;DHT22;226;48.606;9.096;2023-04-24T14:50:29;11.70;49.00
480;DHT22;226;48.606;9.096;2023-04-24T14:52:57;11.80;48.40
480;DHT22;226;48.606;9.096;2023-04-24T14:55:27;11.80;49.10
480;DHT22;226;48.606;9.096;2023-04-24T14:57:55;11.50;48.60
480;DHT22;226;48.606;9.096;2023-04-24T15:00:23;11.30;49.50
480;DHT22;226;48.606;9.096;2023-04-24T15:02:52;11.40;49.20
480;DHT22;226;48.606;9.096;2023-04-24T15:07:49;11.40;49.40
480;DHT22;226;48.606;9.096;2023-04-24T15:10:18;11.60;49.90
480;DHT22;226;48.606;9.096;2023-04-24T15:12:50;11.70;48.90
480;DHT22;226;48.606;9.096;2023-04-24T15:15:19;11.80;52.00
480;DHT22;226;48.606;9.096;2023-04-24T15:17:47;12.00;48.70
480;DHT22;226;48.606;9.096;2023-04-24T15:20:15;11.80;49.00
480;DHT22;226;48.606;9.096;2023-04-24T15:22:44;11.90;49.70
480;DHT22;226;48.606;9.096;2023-04-24T15:25:12;11.80;47.90
480;DHT22;226;48.606;9.096;2023-04-24T15:27:41;11.90;48.60
480;DHT22;226;48.606;9.096;2023-04-24T15:30:12;12.00;48.20
480;DHT22;226;48.606;9.096;2023-04-24T15:32:41;12.10;48.40
480;DHT22;226;48.606;9.096;2023-04-24T15:35:09;13.30;49.90
480;DHT22;226;48.606;9.096;2023-04-24T15:37:37;13.30;48.20
480;DHT22;226;48.606;9.096;2023-04-24T16:50:05;11.90;50.00
480;DHT22;226;48.606;9.096;2023-04-24T17:07:34;12.10;51.10
480;DHT22;226;48.606;9.096;2023-04-24T17:20:00;12.50;49.40
480;DHT22;226;48.606;9.096;2023-04-24T17:27:46;12.70;50.70
480;DHT22;226;48.606;9.096;2023-04-24T17:52:41;11.30;48.40
480;DHT22;226;48.606;9.096;2023-04-24T17:55:09;11.40;52.30
480;DHT22;226;48.606;9.096;2023-04-24T18:05:06;11.10;53.90
480;DHT22;226;48.606;9.096;2023-04-24T18:07:34;11.10;53.20
480;DHT22;226;48.606;9.096;2023-04-24T18:10:02;11.00;53.50
480;DHT22;226;48.606;9.096;2023-04-24T18:12:30;10.90;54.00
480;DHT22;226;48.606;9.096;2023-04-24T18:14:59;10.90;54.30
480;DHT22;226;48.606;9.096;2023-04-24T18:17:30;10.40;54.30
480;DHT22;226;48.606;9.096;2023-04-24T18:22:28;10.80;51.70
480;DHT22;226;48.606;9.096;2023-04-24T18:29:56;10.70;51.60
480;DHT22;226;48.606;9.096;2023-04-24T18:32:25;10.70;55.60
480;DHT22;226;48.606;9.096;2023-04-24T18:34:53;10.60;56.20
480;DHT22;226;48.606;9.096;2023-04-24T18:39:51;10.50;52.90
480;DHT22;226;48.606;9.096;2023-04-24T19:02:17;9.20;78.30
480;DHT22;226;48.606;9.096;2023-04-24T19:39:46;8.50;90.00
480;DHT22;226;48.606;9.096;2023-04-24T20:04:48;7.90;90.10
480;DHT22;226;48.606;9.096;2023-04-24T20:14:43;7.50;93.00
480;DHT22;226;48.606;9.096;2023-04-24T20:19:40;7.40;92.80
480;DHT22;226;48.606;9.096;2023-04-24T20:22:09;7.40;94.40
480;DHT22;226;48.606;9.096;2023-04-24T20:24:39;7.30;94.50
480;DHT22;226;48.606;9.096;2023-04-24T20:27:07;7.50;94.00
480;DHT22;226;48.606;9.096;2023-04-24T20:29:35;7.40;93.80
480;DHT22;226;48.606;9.096;2023-04-24T20:32:03;7.70;93.00
480;DHT22;226;48.606;9.096;2023-04-24T20:34:32;7.60;92.90
480;DHT22;226;48.606;9.096;2023-04-24T20:37:01;7.60;92.60
480;DHT22;226;48.606;9.096;2023-04-24T20:39:31;7.30;92.50
480;DHT22;226;48.606;9.096;2023-04-24T20:44:28;7.10;94.10
480;DHT22;226;48.606;9.096;2023-04-24T20:46:56;6.90;94.50
480;DHT22;226;48.606;9.096;2023-04-24T20:51:53;6.90;93.00
480;DHT22;226;48.606;9.096;2023-04-24T20:54:22;6.70;95.50
480;DHT22;226;48.606;9.096;2023-04-24T20:56:50;6.80;94.90
480;DHT22;226;48.606;9.096;2023-04-24T20:59:18;6.50;95.00
480;DHT22;226;48.606;9.096;2023-04-24T21:01:46;6.60;95.50
480;DHT22;226;48.606;9.096;2023-04-24T21:04:16;6.60;96.20
480;DHT22;226;48.606;9.096;2023-04-24T21:06:44;6.50;97.10
480;DHT22;226;48.606;9.096;2023-04-24T21:09:13;6.60;97.20
480;DHT22;226;48.606;9.096;2023-04-24T21:11:43;6.70;97.50
480;DHT22;226;48.606;9.096;2023-04-24T21:14:11;6.70;97.80
480;DHT22;226;48.606;9.096;2023-04-24T21:16:39;6.70;97.50
480;DHT22;226;48.606;9.096;2023-04-24T21:19:07;6.70;97.60
480;DHT22;226;48.606;9.096;2023-04-24T21:21:35;6.70;97.70
480;DHT22;226;48.606;9.096;2023-04-24T21:24:04;6.70;96.80
480;DHT22;226;48.606;9.096;2023-04-24T21:26:32;6.80;97.00
480;DHT22;226;48.606;9.096;2023-04-24T21:29:02;7.80;97.50
480;DHT22;226;48.606;9.096;2023-04-24T21:31:30;6.80;97.50
480;DHT22;226;48.606;9.096;2023-04-24T21:33:58;7.20;96.70
480;DHT22;226;48.606;9.096;2023-04-24T21:36:26;7.30;95.80
480;DHT22;226;48.606;9.096;2023-04-24T21:38:56;6.90;95.40
480;DHT22;226;48.606;9.096;2023-04-24T21:41:24;7.40;95.10
480;DHT22;226;48.606;9.096;2023-04-24T21:43:52;7.50;93.30
480;DHT22;226;48.606;9.096;2023-04-24T21:46:22;7.40;93.90
480;DHT22;226;48.606;9.096;2023-04-24T21:48:51;7.40;94.20
480;DHT22;226;48.606;9.096;2023-04-24T21:51:19;7.40;94.30
480;DHT22;226;48.606;9.096;2023-04-24T21:53:47;8.00;94.50
480;DHT22;226;48.606;9.096;2023-04-24T21:56:16;7.60;93.80
480;DHT22;226;48.606;9.096;2023-04-24T21:58:45;7.70;93.10
480;DHT22;226;48.606;9.096;2023-04-24T22:01:13;8.20;93.00
480;DHT22;226;48.606;9.096;2023-04-24T22:03:42;7.80;93.00
480;DHT22;226;48.606;9.096;2023-04-24T22:06:11;7.80;92.70
480;DHT22;226;48.606;9.096;2023-04-24T22:08:39;7.90;92.20
480;DHT22;226;48.606;9.096;2023-04-24T22:11:09;8.00;92.00
480;DHT22;226;48.606;9.096;2023-04-24T22:13:52;8.00;91.70
480;DHT22;226;48.606;9.096;2023-04-24T22:16:22;8.10;91.00
480;DHT22;226;48.606;9.096;2023-04-24T22:18:52;8.00;91.30
480;DHT22;226;48.606;9.096;2023-04-24T22:21:21;8.00;91.80
480;DHT22;226;48.606;9.096;2023-04-24T22:23:49;8.10;91.20
480;DHT22;226;48.606;9.096;2023-04-24T22:26:18;8.20;90.00
480;DHT22;226;48.606;9.096;2023-04-24T22:28:46;8.50;89.50
480;DHT22;226;48.606;9.096;2023-04-24T22:31:14;8.00;89.80
480;DHT22;226;48.606;9.096;2023-04-24T22:33:44;8.30;89.50
480;DHT22;226;48.606;9.096;2023-04-24T22:36:14;8.30;89.90
480;DHT22;226;48.606;9.096;2023-04-24T22:38:43;8.40;90.00
480;DHT22;226;48.606;9.096;2023-04-24T22:41:11;8.30;90.30
480;DHT22;226;48.606;9.096;2023-04-24T22:43:39;8.30;90.00
480;DHT22;226;48.606;9.096;2023-04-24T22:46:07;8.20;89.80
480;DHT22;226;48.606;9.096;2023-04-24T22:48:36;8.20;90.10
480;DHT22;226;48.606;9.096;2023-04-24T22:51:04;8.50;90.20
480;DHT22;226;48.606;9.096;2023-04-24T22:53:34;8.40;90.20
480;DHT22;226;48.606;9.096;2023-04-24T22:56:02;8.30;90.40
480;DHT22;226;48.606;9.096;2023-04-24T22:58:31;8.50;90.60
480;DHT22;226;48.606;9.096;2023-04-24T23:00:59;8.30;90.50
480;DHT22;226;48.606;9.096;2023-04-24T23:03:27;8.40;90.20
480;DHT22;226;48.606;9.096;2023-04-24T23:05:57;8.40;90.20
480;DHT22;226;48.606;9.096;2023-04-24T23:08:25;8.20;89.70
480;DHT22;226;48.606;9.096;2023-04-24T23:10:57;8.40;90.00
480;DHT22;226;48.606;9.096;2023-04-24T23:13:26;8.50;89.50
480;DHT22;226;48.606;9.096;2023-04-24T23:15:54;8.60;89.40
480;DHT22;226;48.606;9.096;2023-04-24T23:18:22;8.50;88.70
480;DHT22;226;48.606;9.096;2023-04-24T23:20:51;8.50;90.00
480;DHT22;226;48.606;9.096;2023-04-24T23:23:19;8.50;90.80
480;DHT22;226;48.606;9.096;2023-04-24T23:25:47;8.40;91.60
480;DHT22;226;48.606;9.096;2023-04-24T23:28:19;8.10;92.30
480;DHT22;226;48.606;9.096;2023-04-24T23:30:47;7.80;92.40
480;DHT22;226;48.606;9.096;2023-04-24T23:33:15;8.00;92.10
480;DHT22;226;48.606;9.096;2023-04-24T23:35:43;7.40;92.00
480;DHT22;226;48.606;9.096;2023-04-24T23:38:11;7.90;92.60
480;DHT22;226;48.606;9.096;2023-04-24T23:40:39;7.90;92.60
480;DHT22;226;48.606;9.096;2023-04-24T23:43:07;7.80;92.40
480;DHT22;226;48.606;9.096;2023-04-24T23:45:36;7.90;93.10
480;DHT22;226;48.606;9.096;2023-04-24T23:48:06;9.10;92.90
480;DHT22;226;48.606;9.096;2023-04-24T23:50:34;8.00;92.10
480;DHT22;226;48.606;9.096;2023-04-24T23:53:02;8.00;92.30
480;DHT22;226;48.606;9.096;2023-04-24T23:55:30;7.80;92.30
480;DHT22;226;48.606;9.096;2023-04-24T23:57:58;7.90;92.60
